createdAt,value
2023-04-21T00:00:09.332Z,82.10
2023-04-21T00:02:39.976Z,81.62
2023-04-21T00:05:10.702Z,81.67
2023-04-21T00:07:39.524Z,81.54
2023-04-21T00:10:09.774Z,81.58
2023-04-21T00:12:38.368Z,81.53
2023-04-21T00:15:10.017Z,81.07
2023-04-21T00:17:39.245Z,81.50
2023-04-21T00:20:10.619Z,81.84
2023-04-21T00:22:39.089Z,81.90
2023-04-21T00:25:08.749Z,82.06
2023-04-21T00:27:37.122Z,81.46
2023-04-21T00:30:09.595Z,82.37
2023-04-21T00:32:38.883Z,82.51
2023-04-21T00:35:08.194Z,82.01
2023-04-21T00:37:36.706Z,82.75
2023-04-21T00:40:06.787Z,82.61
2023-04-21T00:42:35.192Z,82.73
2023-04-21T00:45:03.793Z,82.55
2023-04-21T00:47:33.986Z,82.97
2023-04-21T00:50:03.029Z,82.85
2023-04-21T00:52:32.432Z,82.66
2023-04-21T00:55:01.456Z,83.09
2023-04-21T00:57:30.691Z,82.86
2023-04-21T00:59:59.102Z,82.81
2023-04-21T01:02:28.520Z,82.49
2023-04-21T01:04:58.487Z,82.82
2023-04-21T01:07:27.333Z,82.56
2023-04-21T01:09:56.093Z,83.17
2023-04-21T01:12:24.879Z,83.33
2023-04-21T01:14:53.257Z,83.66
2023-04-21T01:17:21.754Z,84.01
2023-04-21T01:19:51.366Z,83.76
2023-04-21T01:22:21.112Z,84.17
2023-04-21T01:24:50.592Z,84.41
2023-04-21T01:27:21.517Z,84.28
2023-04-21T01:29:52.920Z,84.37
2023-04-21T01:32:25.266Z,83.87
2023-04-21T01:34:55.059Z,83.37
2023-04-21T01:37:28.760Z,83.76
2023-04-21T01:40:00.247Z,83.74
2023-04-21T01:42:30.779Z,83.71
2023-04-21T01:45:00.134Z,83.44
2023-04-21T01:47:28.783Z,83.52
2023-04-21T01:49:57.163Z,83.77
2023-04-21T01:52:27.083Z,83.73
2023-04-21T01:54:56.456Z,83.22
2023-04-21T01:57:24.887Z,83.45
2023-04-21T01:59:53.495Z,83.07
2023-04-21T02:02:22.130Z,83.18
2023-04-21T02:04:52.558Z,83.35
2023-04-21T02:07:20.955Z,83.53
2023-04-21T02:09:50.713Z,83.90
2023-04-21T02:12:19.185Z,83.87
2023-04-21T02:14:48.259Z,84.39
2023-04-21T02:17:16.796Z,83.83
2023-04-21T02:19:45.528Z,83.81
2023-04-21T02:22:13.910Z,83.62
2023-04-21T02:24:42.369Z,83.90
2023-04-21T02:27:12.166Z,86.01
2023-04-21T02:29:40.741Z,83.36
2023-04-21T02:32:22.351Z,83.76
2023-04-21T02:34:53.726Z,81.94
2023-04-21T02:37:22.938Z,81.36
2023-04-21T02:39:54.731Z,79.74
2023-04-21T02:42:24.491Z,81.04
2023-04-21T02:44:54.059Z,80.97
2023-04-21T02:47:22.419Z,81.09
2023-04-21T02:49:50.873Z,81.46
2023-04-21T02:52:19.402Z,80.47
2023-04-21T02:54:47.830Z,81.85
2023-04-21T02:57:16.183Z,80.77
2023-04-21T02:59:46.053Z,81.05
2023-04-21T03:02:14.449Z,80.93
2023-04-21T03:04:42.955Z,80.72
2023-04-21T03:07:14.260Z,81.23
2023-04-21T03:09:42.902Z,82.53
2023-04-21T03:12:11.332Z,82.96
2023-04-21T03:14:39.729Z,83.45
2023-04-21T03:17:09.816Z,82.99
2023-04-21T03:19:38.216Z,83.60
2023-04-21T03:22:07.022Z,83.29
2023-04-21T03:24:35.520Z,83.23
2023-04-21T03:27:03.867Z,84.29
2023-04-21T03:29:32.316Z,84.53
2023-04-21T03:32:00.703Z,84.06
2023-04-21T03:34:30.561Z,84.27
2023-04-21T03:37:00.973Z,83.84
2023-04-21T03:39:29.405Z,84.18
2023-04-21T03:41:57.897Z,83.70
2023-04-21T03:44:28.752Z,84.13
2023-04-21T03:46:57.643Z,84.28
2023-04-21T03:49:26.311Z,84.12
2023-04-21T03:51:56.105Z,84.38
2023-04-21T03:54:24.417Z,84.41
2023-04-21T03:56:52.797Z,84.31
2023-04-21T03:59:21.519Z,84.63
2023-04-21T04:01:50.033Z,84.78
2023-04-21T04:04:18.805Z,85.08
2023-04-21T04:06:47.277Z,85.12
2023-04-21T04:09:17.158Z,84.82
2023-04-21T04:11:45.717Z,84.67
2023-04-21T04:14:14.108Z,84.74
2023-04-21T04:16:42.592Z,85.23
2023-04-21T04:19:11.601Z,84.95
2023-04-21T04:21:40.010Z,84.62
2023-04-21T04:24:08.970Z,84.55
2023-04-21T04:26:40.107Z,84.23
2023-04-21T04:29:10.708Z,84.45
2023-04-21T04:31:39.372Z,84.62
2023-04-21T04:34:09.769Z,84.67
2023-04-21T04:36:38.128Z,84.25
2023-04-21T04:39:08.958Z,85.05
2023-04-21T04:41:39.575Z,84.74
2023-04-21T04:44:09.018Z,84.80
2023-04-21T04:46:37.629Z,84.92
2023-04-21T04:49:06.582Z,84.96
2023-04-21T04:51:35.014Z,84.69
2023-04-21T04:54:03.439Z,84.98
2023-04-21T04:56:32.212Z,85.10
2023-04-21T04:59:01.964Z,85.02
2023-04-21T05:01:31.291Z,84.92
2023-04-21T05:04:00.066Z,84.75
2023-04-21T05:06:29.672Z,84.69
2023-04-21T05:08:58.024Z,84.22
2023-04-21T05:11:26.490Z,84.22
2023-04-21T05:13:54.908Z,84.63
2023-04-21T05:16:24.668Z,84.14
2023-04-21T05:18:54.374Z,84.90
2023-04-21T05:21:27.769Z,84.58
2023-04-21T05:23:57.075Z,84.46
2023-04-21T05:26:27.524Z,84.13
2023-04-21T05:28:56.646Z,84.44
2023-04-21T05:31:26.852Z,85.16
2023-04-21T05:33:55.375Z,85.14
2023-04-21T05:36:24.977Z,84.51
2023-04-21T05:38:54.147Z,85.04
2023-04-21T05:41:22.767Z,84.41
2023-04-21T05:43:51.148Z,84.62
2023-04-21T05:46:19.569Z,84.88
2023-04-21T05:48:49.328Z,84.30
2023-04-21T05:51:17.864Z,84.61
2023-04-21T05:53:47.270Z,84.04
2023-04-21T05:56:15.768Z,84.84
2023-04-21T05:58:44.124Z,84.88
2023-04-21T06:01:13.064Z,84.49
2023-04-21T06:03:41.633Z,84.09
2023-04-21T06:06:11.625Z,84.40
2023-04-21T06:08:40.017Z,85.00
2023-04-21T06:11:08.625Z,84.30
2023-04-21T06:13:38.593Z,84.34
2023-04-21T06:16:08.143Z,84.70
2023-04-21T06:18:36.639Z,84.64
2023-04-21T06:21:05.960Z,83.35
2023-04-21T06:23:35.767Z,83.99
2023-04-21T06:26:06.884Z,83.33
2023-04-21T06:28:36.674Z,83.43
2023-04-21T06:31:08.745Z,84.28
2023-04-21T06:33:37.910Z,83.39
2023-04-21T06:36:07.357Z,83.29
2023-04-21T06:38:37.019Z,82.87
2023-04-21T06:41:06.595Z,82.49
2023-04-21T06:43:34.972Z,82.93
2023-04-21T06:46:03.355Z,83.30
2023-04-21T06:48:31.906Z,83.52
2023-04-21T06:51:00.629Z,82.41
2023-04-21T06:53:28.983Z,81.87
2023-04-21T06:55:58.767Z,81.85
2023-04-21T06:58:27.217Z,79.43
2023-04-21T07:00:55.763Z,79.49
2023-04-21T07:03:24.476Z,79.65
2023-04-21T07:05:53.222Z,79.74
2023-04-21T07:08:21.601Z,79.63
2023-04-21T07:10:50.018Z,79.05
2023-04-21T07:13:19.747Z,78.98
2023-04-21T07:15:48.158Z,80.17
2023-04-21T07:18:16.652Z,78.56
2023-04-21T07:20:45.206Z,79.34
2023-04-21T07:23:13.716Z,79.47
2023-04-21T07:25:42.097Z,79.38
2023-04-21T07:28:11.063Z,79.92
2023-04-21T07:30:40.870Z,79.93
2023-04-21T07:33:09.620Z,80.01
2023-04-21T07:35:38.229Z,79.96
2023-04-21T07:38:06.770Z,79.26
2023-04-21T07:40:35.105Z,78.06
2023-04-21T07:43:03.581Z,77.34
2023-04-21T07:45:31.999Z,77.19
2023-04-21T07:48:01.878Z,76.44
2023-04-21T07:50:30.305Z,76.40
2023-04-21T07:52:58.620Z,77.11
2023-04-21T07:55:27.018Z,76.24
2023-04-21T07:57:55.914Z,76.02
2023-04-21T08:00:24.617Z,76.66
2023-04-21T08:02:53.096Z,77.13
2023-04-21T08:05:22.995Z,75.96
2023-04-21T08:07:51.494Z,75.76
2023-04-21T08:10:19.937Z,76.56
2023-04-21T08:12:48.325Z,76.56
2023-04-21T08:15:16.723Z,77.11
2023-04-21T08:17:45.892Z,76.97
2023-04-21T08:20:14.915Z,76.34
2023-04-21T08:22:47.280Z,76.80
2023-04-21T08:25:16.514Z,75.84
2023-04-21T08:27:46.070Z,75.51
2023-04-21T08:30:15.664Z,75.04
2023-04-21T08:32:44.669Z,74.60
2023-04-21T08:35:13.249Z,74.80
2023-04-21T08:37:41.788Z,74.60
2023-04-21T08:40:12.833Z,74.14
2023-04-21T08:42:41.349Z,73.89
2023-04-21T08:45:12.546Z,72.93
2023-04-21T08:47:42.747Z,71.54
2023-04-21T08:50:15.675Z,71.62
2023-04-21T08:52:44.170Z,71.72
2023-04-21T08:55:15.355Z,71.49
2023-04-21T08:57:43.891Z,71.41
2023-04-21T09:00:13.849Z,71.76
2023-04-21T09:03:00.818Z,69.23
2023-04-21T09:05:32.112Z,68.97
2023-04-21T09:08:11.989Z,69.09
2023-04-21T09:10:52.468Z,69.82
2023-04-21T09:13:23.355Z,70.44
2023-04-21T09:15:53.313Z,70.34
2023-04-21T09:18:24.167Z,69.65
2023-04-21T09:21:07.844Z,70.76
2023-04-21T09:23:48.617Z,70.99
2023-04-21T09:26:21.357Z,70.34
2023-04-21T09:28:52.028Z,71.10
2023-04-21T09:31:24.596Z,71.49
2023-04-21T09:33:59.631Z,71.53
2023-04-21T09:36:31.993Z,72.05
2023-04-21T09:39:29.029Z,72.18
2023-04-21T09:41:52.761Z,71.91
2023-04-21T09:44:22.446Z,72.06
2023-04-21T09:46:52.983Z,71.82
2023-04-21T09:49:24.983Z,71.86
2023-04-21T09:54:31.671Z,72.80
2023-04-21T09:57:05.440Z,72.96
2023-04-21T09:59:37.015Z,72.33
2023-04-21T10:02:08.213Z,72.03
2023-04-21T10:04:43.190Z,71.66
2023-04-21T10:07:12.692Z,71.20
2023-04-21T10:09:47.151Z,71.02
2023-04-21T10:12:17.382Z,70.00
2023-04-21T10:14:45.728Z,67.47
2023-04-21T10:17:15.032Z,67.39
2023-04-21T10:19:51.543Z,66.40
2023-04-21T10:22:29.737Z,65.02
2023-04-21T10:25:00.321Z,64.81
2023-04-21T10:27:39.293Z,63.64
2023-04-21T10:30:22.666Z,64.31
2023-04-21T10:33:04.703Z,64.12
2023-04-21T10:36:00.993Z,64.18
2023-04-21T10:38:36.097Z,64.93
2023-04-21T10:41:28.279Z,64.28
2023-04-21T10:43:59.625Z,63.96
2023-04-21T10:46:36.183Z,64.68
2023-04-21T10:49:09.493Z,65.10
2023-04-21T10:52:06.509Z,65.36
2023-04-21T10:54:46.438Z,65.64
2023-04-21T10:57:17.474Z,65.59
2023-04-21T10:59:49.472Z,65.22
2023-04-21T11:02:19.908Z,65.11
2023-04-21T11:04:52.814Z,65.93
2023-04-21T11:07:23.209Z,65.33
2023-04-21T11:09:59.825Z,66.24
2023-04-21T11:12:30.793Z,65.69
2023-04-21T11:15:00.859Z,65.79
2023-04-21T11:17:29.251Z,65.60
2023-04-21T11:19:58.188Z,64.83
2023-04-21T11:22:27.914Z,65.50
2023-04-21T11:24:58.598Z,65.20
2023-04-21T11:27:30.018Z,64.36
2023-04-21T11:30:00.088Z,64.36
2023-04-21T11:32:29.270Z,63.61
2023-04-21T11:34:57.857Z,62.68
2023-04-21T11:37:28.192Z,63.37
2023-04-21T11:40:00.579Z,63.84
2023-04-21T11:42:29.822Z,64.79
2023-04-21T11:45:00.689Z,63.73
2023-04-21T11:47:30.191Z,64.78
2023-04-21T11:50:00.554Z,65.04
2023-04-21T11:52:32.892Z,64.28
2023-04-21T11:55:03.111Z,63.16
2023-04-21T11:57:33.503Z,62.50
2023-04-21T12:00:07.935Z,62.08
2023-04-21T12:02:36.670Z,61.76
2023-04-21T12:05:08.093Z,61.47
2023-04-21T12:07:38.888Z,61.79
2023-04-21T12:10:12.694Z,60.82
2023-04-21T12:12:41.841Z,61.03
2023-04-21T12:15:13.844Z,59.94
2023-04-21T12:17:46.015Z,60.16
2023-04-21T12:20:17.638Z,59.77
2023-04-21T12:22:46.639Z,60.35
2023-04-21T12:25:15.373Z,60.06
2023-04-21T12:27:50.143Z,59.51
2023-04-21T12:30:20.537Z,59.96
2023-04-21T12:32:49.024Z,60.36
2023-04-21T12:35:17.968Z,60.23
2023-04-21T12:37:46.815Z,59.18
2023-04-21T12:40:15.288Z,58.64
2023-04-21T12:42:43.698Z,58.88
2023-04-21T12:45:13.720Z,58.85
2023-04-21T12:47:46.254Z,58.08
2023-04-21T12:50:15.719Z,57.72
2023-04-21T12:52:44.081Z,57.16
2023-04-21T12:55:13.413Z,57.46
2023-04-21T12:57:41.876Z,57.31
2023-04-21T13:00:13.037Z,57.23
2023-04-21T13:02:43.145Z,57.50
2023-04-21T13:05:13.309Z,57.86
2023-04-21T13:07:41.941Z,58.07
2023-04-21T13:10:11.443Z,57.04
2023-04-21T13:12:39.819Z,57.55
2023-04-21T13:15:10.007Z,56.82
2023-04-21T13:17:38.328Z,57.14
2023-04-21T13:20:09.531Z,57.21
2023-04-21T13:22:37.954Z,55.54
2023-04-21T13:25:07.519Z,56.72
2023-04-21T13:27:38.232Z,55.56
2023-04-21T13:30:09.786Z,55.54
2023-04-21T13:32:38.869Z,55.61
2023-04-21T13:35:10.735Z,55.50
2023-04-21T13:37:39.752Z,55.46
2023-04-21T13:40:10.949Z,55.69
2023-04-21T13:42:40.386Z,54.93
2023-04-21T13:45:10.282Z,54.91
2023-04-21T13:47:38.845Z,54.04
2023-04-21T13:50:10.507Z,54.13
2023-04-21T13:52:38.946Z,53.82
2023-04-21T13:55:08.484Z,53.59
2023-04-21T13:57:37.109Z,53.18
2023-04-21T14:00:07.037Z,52.84
2023-04-21T14:02:35.615Z,52.50
2023-04-21T14:05:04.867Z,52.82
2023-04-21T14:07:35.869Z,51.92
2023-04-21T14:10:05.080Z,52.20
2023-04-21T14:12:33.443Z,52.03
2023-04-21T14:15:01.869Z,52.01
2023-04-21T14:17:30.784Z,52.12
2023-04-21T14:19:59.331Z,52.70
2023-04-21T14:22:28.286Z,52.28
2023-04-21T14:24:58.274Z,50.75
2023-04-21T14:27:26.674Z,50.57
2023-04-21T14:29:55.124Z,50.36
2023-04-21T14:32:23.762Z,50.34
2023-04-21T14:34:53.569Z,50.27
2023-04-21T14:37:22.807Z,50.12
2023-04-21T14:39:51.306Z,50.86
2023-04-21T14:42:21.212Z,50.36
2023-04-21T14:44:49.674Z,49.62
2023-04-21T14:47:18.354Z,50.66
2023-04-21T14:49:47.275Z,50.30
2023-04-21T14:52:15.764Z,50.01
2023-04-21T14:54:44.145Z,50.16
2023-04-21T14:59:46.749Z,49.54
2023-04-21T15:02:15.846Z,49.60
2023-04-21T15:04:44.613Z,48.86
2023-04-21T15:07:13.459Z,48.88
2023-04-21T15:09:45.594Z,48.98
2023-04-21T15:12:14.723Z,48.98
2023-04-21T15:14:44.610Z,48.81
2023-04-21T15:17:13.188Z,49.99
2023-04-21T15:19:41.764Z,49.00
2023-04-21T15:22:12.156Z,49.40
2023-04-21T15:24:40.894Z,49.30
2023-04-21T15:27:09.322Z,49.68
2023-04-21T15:29:37.862Z,49.28
2023-04-21T15:32:07.918Z,49.01
2023-04-21T15:34:36.412Z,48.82
2023-04-21T15:37:04.786Z,48.70
2023-04-21T15:39:33.321Z,48.97
2023-04-21T15:42:01.929Z,48.85
2023-04-21T15:44:30.334Z,49.04
2023-04-21T15:46:58.847Z,48.50
2023-04-21T15:49:28.973Z,48.99
2023-04-21T15:51:59.639Z,49.27
2023-04-21T15:54:28.142Z,48.46
2023-04-21T15:56:57.626Z,48.23
2023-04-21T15:59:26.399Z,47.83
2023-04-21T16:01:56.856Z,48.14
2023-04-21T16:04:26.000Z,47.33
2023-04-21T16:06:56.211Z,47.43
2023-04-21T16:09:24.670Z,47.86
2023-04-21T16:11:53.173Z,47.75
2023-04-21T16:14:21.799Z,48.14
2023-04-21T16:16:50.167Z,48.26
2023-04-21T16:19:18.730Z,48.99
2023-04-21T16:21:47.228Z,48.44
2023-04-21T16:24:20.308Z,48.59
2023-04-21T16:26:48.987Z,47.93
2023-04-21T16:29:17.579Z,47.96
2023-04-21T16:31:46.577Z,47.39
2023-04-21T16:34:16.241Z,48.32
2023-04-21T16:36:45.227Z,48.43
2023-04-21T16:39:13.626Z,49.75
2023-04-21T16:41:43.349Z,47.94
2023-04-21T16:44:11.745Z,48.92
2023-04-21T16:46:40.868Z,49.28
2023-04-21T16:49:09.376Z,49.62
2023-04-21T16:51:40.042Z,51.56
2023-04-21T16:54:08.485Z,49.69
2023-04-21T16:56:36.888Z,49.23
2023-04-21T16:59:08.094Z,49.69
2023-04-21T17:01:36.576Z,49.23
2023-04-21T17:04:05.537Z,49.72
2023-04-21T17:06:34.324Z,49.16
2023-04-21T17:09:02.806Z,48.77
2023-04-21T17:11:32.628Z,48.96
2023-04-21T17:14:01.136Z,48.71
2023-04-21T17:16:31.025Z,48.65
2023-04-21T17:18:59.952Z,49.37
2023-04-21T17:21:29.201Z,49.01
2023-04-21T17:23:57.719Z,48.56
2023-04-21T17:26:26.375Z,48.87
2023-04-21T17:28:54.777Z,49.47
2023-04-21T17:31:23.258Z,49.62
2023-04-21T17:33:53.519Z,49.64
2023-04-21T17:36:22.117Z,49.31
2023-04-21T17:38:51.061Z,49.84
2023-04-21T17:41:20.055Z,50.16
2023-04-21T17:43:48.447Z,50.32
2023-04-21T17:46:16.969Z,50.11
2023-04-21T17:48:45.823Z,50.45
2023-04-21T17:51:15.687Z,50.29
2023-04-21T17:53:44.139Z,51.11
2023-04-21T17:56:14.425Z,50.64
2023-04-21T17:58:42.978Z,51.23
2023-04-21T18:01:11.408Z,52.17
2023-04-21T18:03:41.408Z,51.73
2023-04-21T18:06:11.374Z,50.47
2023-04-21T18:08:41.435Z,46.59
2023-04-21T18:11:11.554Z,45.74
2023-04-21T18:13:40.001Z,46.06
2023-04-21T18:16:08.730Z,45.52
2023-04-21T18:18:37.613Z,45.33
2023-04-21T18:21:06.318Z,45.40
2023-04-21T18:23:35.797Z,45.09
2023-04-21T18:26:05.890Z,45.63
2023-04-21T18:28:34.330Z,46.06
2023-04-21T18:31:02.788Z,46.18
2023-04-21T18:33:31.282Z,46.96
2023-04-21T18:35:59.651Z,46.77
2023-04-21T18:38:28.039Z,46.94
2023-04-21T18:40:57.097Z,47.03
2023-04-21T18:43:26.946Z,47.46
2023-04-21T18:45:55.524Z,47.97
2023-04-21T18:48:23.903Z,48.32
2023-04-21T18:50:52.304Z,48.47
2023-04-21T18:53:20.726Z,48.92
2023-04-21T18:55:49.170Z,49.13
2023-04-21T18:58:17.682Z,50.51
2023-04-21T19:00:47.507Z,50.81
2023-04-21T19:03:16.138Z,51.13
2023-04-21T19:05:44.653Z,51.08
2023-04-21T19:08:12.972Z,51.66
2023-04-21T19:10:41.500Z,52.20
2023-04-21T19:13:10.324Z,52.73
2023-04-21T19:15:39.060Z,53.45
2023-04-21T19:18:08.902Z,54.32
2023-04-21T19:20:37.907Z,53.72
2023-04-21T19:23:06.354Z,55.13
2023-04-21T19:25:35.238Z,55.42
2023-04-21T19:28:04.295Z,55.12
2023-04-21T19:30:32.868Z,55.38
2023-04-21T19:33:01.338Z,55.49
2023-04-21T19:35:31.560Z,55.59
2023-04-21T19:38:00.213Z,55.88
2023-04-21T19:40:29.239Z,56.05
2023-04-21T19:42:58.670Z,55.96
2023-04-21T19:45:27.968Z,55.56
2023-04-21T19:47:56.458Z,55.77
2023-04-21T19:50:24.985Z,56.14
2023-04-21T19:52:54.854Z,56.87
2023-04-21T19:55:23.378Z,56.13
2023-04-21T19:57:52.073Z,56.32
2023-04-21T20:00:20.791Z,56.79
2023-04-21T20:02:49.353Z,57.04
2023-04-21T20:05:17.937Z,57.03
2023-04-21T20:07:46.838Z,56.83
2023-04-21T20:10:16.736Z,56.73
2023-04-21T20:12:45.184Z,57.85
2023-04-21T20:15:13.777Z,58.10
2023-04-21T20:17:42.583Z,57.62
2023-04-21T20:20:13.104Z,57.93
2023-04-21T20:22:41.642Z,58.34
2023-04-21T20:25:10.965Z,58.51
2023-04-21T20:27:40.853Z,59.16
2023-04-21T20:30:10.320Z,59.39
2023-04-21T20:32:38.721Z,58.80
2023-04-21T20:35:08.249Z,59.58
2023-04-21T20:37:37.459Z,59.36
2023-04-21T20:40:08.385Z,59.08
2023-04-21T20:42:36.865Z,58.88
2023-04-21T20:45:09.437Z,59.63
2023-04-21T20:47:38.006Z,59.06
2023-04-21T20:50:08.262Z,60.05
2023-04-21T20:52:36.759Z,59.50
2023-04-21T20:55:05.498Z,59.93
2023-04-21T20:57:34.064Z,59.66
2023-04-21T21:00:04.830Z,60.09
2023-04-21T21:02:34.781Z,59.02
2023-04-21T21:05:04.261Z,59.04
2023-04-21T21:07:33.199Z,58.09
2023-04-21T21:10:01.727Z,58.60
2023-04-21T21:12:30.159Z,58.76
2023-04-21T21:14:58.522Z,59.60
2023-04-21T21:17:26.998Z,59.57
2023-04-21T21:19:57.125Z,59.38
2023-04-21T21:22:25.546Z,59.34
2023-04-21T21:24:53.874Z,59.11
2023-04-21T21:27:22.357Z,59.46
2023-04-21T21:29:50.851Z,58.65
2023-04-21T21:32:19.239Z,59.21
2023-04-21T21:34:48.232Z,59.73
2023-04-21T21:37:18.008Z,59.36
2023-04-21T21:39:46.372Z,59.81
2023-04-21T21:42:14.772Z,59.41
2023-04-21T21:44:43.267Z,59.18
2023-04-21T21:47:11.852Z,59.66
2023-04-21T21:49:40.799Z,60.27
2023-04-21T21:52:09.321Z,60.14
2023-04-21T21:54:39.329Z,60.10
2023-04-21T21:57:07.776Z,59.85
2023-04-21T21:59:36.505Z,60.24
2023-04-21T22:02:05.490Z,59.59
2023-04-21T22:04:33.936Z,59.60
2023-04-21T22:07:03.305Z,60.21
2023-04-21T22:09:31.730Z,60.05
2023-04-21T22:12:02.117Z,60.58
2023-04-21T22:14:30.897Z,60.75
2023-04-21T22:16:59.212Z,60.48
2023-04-21T22:19:27.764Z,60.49
2023-04-21T22:21:56.546Z,60.51
2023-04-21T22:24:25.069Z,61.24
2023-04-21T22:26:53.494Z,60.93
2023-04-21T22:29:23.262Z,60.64
2023-04-21T22:31:51.801Z,60.77
2023-04-21T22:34:20.303Z,60.46
2023-04-21T22:36:48.668Z,61.44
2023-04-21T22:39:17.449Z,61.13
2023-04-21T22:41:45.972Z,60.89
2023-04-21T22:44:14.599Z,60.93
2023-04-21T22:46:44.428Z,61.64
2023-04-21T22:49:13.020Z,60.91
2023-04-21T22:51:42.277Z,61.48
2023-04-21T22:54:10.732Z,60.77
2023-04-21T22:56:39.150Z,61.38
2023-04-21T22:59:08.311Z,61.48
2023-04-21T23:01:36.696Z,61.40
2023-04-21T23:04:06.555Z,61.42
2023-04-21T23:06:35.079Z,61.24
2023-04-21T23:09:04.171Z,60.93
2023-04-21T23:11:32.684Z,61.23
2023-04-21T23:14:01.054Z,61.83
2023-04-21T23:16:29.560Z,61.21
2023-04-21T23:18:57.902Z,61.83
2023-04-21T23:21:27.675Z,61.54
2023-04-21T23:23:56.056Z,62.02
2023-04-21T23:26:26.681Z,62.28
2023-04-21T23:28:55.055Z,62.12
2023-04-21T23:31:23.513Z,62.00
2023-04-21T23:33:52.073Z,62.01
2023-04-21T23:36:20.509Z,62.20
2023-04-21T23:38:50.275Z,62.25
2023-04-21T23:41:18.690Z,62.57
2023-04-21T23:43:47.097Z,62.45
2023-04-21T23:46:16.582Z,62.39
2023-04-21T23:48:45.317Z,62.52
2023-04-21T23:51:14.007Z,63.04
2023-04-21T23:53:42.505Z,62.97
2023-04-21T23:56:12.297Z,63.43
2023-04-21T23:58:40.797Z,63.64
